sensor_id;sensor_type;location;lat;lon;timestamp;pressure;altitude;pressure_sealevel;temperature;humidity
29839;BME280;18669;53.356;-1.464;2023-09-12T00:00:45;100340.81;;;17.63;100.00
29839;BME280;18669;53.356;-1.464;2023-09-12T00:03:31;100345.25;;;17.63;100.00
29839;BME280;18669;53.356;-1.464;2023-09-12T00:06:16;100334.78;;;17.59;100.00
29839;BME280;18669;53.356;-1.464;2023-09-12T00:09:01;100339.16;;;17.60;100.00
29839;BME280;18669;53.356;-1.464;2023-09-12T00:11:46;100341.91;;;17.59;100.00
29839;BME280;18669;53.356;-1.464;2023-09-12T00:14:30;100333.22;;;17.55;100.00
29839;BME280;18669;53.356;-1.464;2023-09-12T00:17:15;100331.44;;;17.56;100.00
29839;BME280;18669;53.356;-1.464;2023-09-12T00:20:00;100335.22;;;17.52;100.00
29839;BME280;18669;53.356;-1.464;2023-09-12T00:22:46;100332.63;;;17.50;100.00
29839;BME280;18669;53.356;-1.464;2023-09-12T00:25:30;100338.97;;;17.48;100.00
29839;BME280;18669;53.356;-1.464;2023-09-12T00:28:15;100325.00;;;17.44;100.00
29839;BME280;18669;53.356;-1.464;2023-09-12T00:31:00;100333.75;;;17.46;100.00
29839;BME280;18669;53.356;-1.464;2023-09-12T00:33:45;100323.50;;;17.38;100.00
29839;BME280;18669;53.356;-1.464;2023-09-12T00:36:30;100320.06;;;17.36;100.00
29839;BME280;18669;53.356;-1.464;2023-09-12T00:39:14;100329.88;;;17.36;100.00
29839;BME280;18669;53.356;-1.464;2023-09-12T00:41:59;100323.69;;;17.35;100.00
29839;BME280;18669;53.356;-1.464;2023-09-12T00:44:44;100325.66;;;17.32;100.00
29839;BME280;18669;53.356;-1.464;2023-09-12T00:47:30;100326.50;;;17.32;100.00
29839;BME280;18669;53.356;-1.464;2023-09-12T00:50:16;100330.72;;;17.36;100.00
29839;BME280;18669;53.356;-1.464;2023-09-12T00:53:02;100327.13;;;17.37;100.00
29839;BME280;18669;53.356;-1.464;2023-09-12T00:55:54;100322.66;;;17.38;100.00
29839;BME280;18669;53.356;-1.464;2023-09-12T00:58:40;100322.47;;;17.25;100.00
29839;BME280;18669;53.356;-1.464;2023-09-12T01:01:26;100320.81;;;17.22;100.00
29839;BME280;18669;53.356;-1.464;2023-09-12T01:04:11;100322.38;;;17.26;100.00
29839;BME280;18669;53.356;-1.464;2023-09-12T01:06:56;100320.13;;;17.19;100.00
29839;BME280;18669;53.356;-1.464;2023-09-12T01:09:41;100315.75;;;17.18;100.00
29839;BME280;18669;53.356;-1.464;2023-09-12T01:12:26;100321.31;;;17.13;100.00
29839;BME280;18669;53.356;-1.464;2023-09-12T01:15:11;100327.19;;;17.02;100.00
29839;BME280;18669;53.356;-1.464;2023-09-12T01:17:58;100322.13;;;16.97;100.00
29839;BME280;18669;53.356;-1.464;2023-09-12T01:21:12;100317.03;;;17.10;100.00
29839;BME280;18669;53.356;-1.464;2023-09-12T01:27:19;100330.78;;;17.01;100.00
29839;BME280;18669;53.356;-1.464;2023-09-12T01:30:07;100328.38;;;16.96;100.00
29839;BME280;18669;53.356;-1.464;2023-09-12T01:32:53;100330.38;;;16.91;100.00
29839;BME280;18669;53.356;-1.464;2023-09-12T01:35:39;100326.25;;;16.85;100.00
29839;BME280;18669;53.356;-1.464;2023-09-12T01:38:23;100321.41;;;16.76;100.00
29839;BME280;18669;53.356;-1.464;2023-09-12T01:41:08;100331.63;;;16.84;100.00
29839;BME280;18669;53.356;-1.464;2023-09-12T01:43:54;100328.22;;;16.99;100.00
29839;BME280;18669;53.356;-1.464;2023-09-12T01:46:40;100319.63;;;17.12;100.00
29839;BME280;18669;53.356;-1.464;2023-09-12T01:49:27;100327.28;;;17.00;100.00
29839;BME280;18669;53.356;-1.464;2023-09-12T01:52:13;100330.72;;;17.03;100.00
29839;BME280;18669;53.356;-1.464;2023-09-12T01:54:59;100326.78;;;16.92;100.00
29839;BME280;18669;53.356;-1.464;2023-09-12T01:57:44;100329.22;;;16.79;100.00
29839;BME280;18669;53.356;-1.464;2023-09-12T02:00:29;100334.22;;;16.85;100.00
29839;BME280;18669;53.356;-1.464;2023-09-12T02:03:14;100333.66;;;16.79;100.00
29839;BME280;18669;53.356;-1.464;2023-09-12T02:05:58;100341.09;;;16.72;100.00
29839;BME280;18669;53.356;-1.464;2023-09-12T02:08:43;100338.44;;;16.72;100.00
29839;BME280;18669;53.356;-1.464;2023-09-12T02:11:28;100336.56;;;16.74;100.00
29839;BME280;18669;53.356;-1.464;2023-09-12T02:14:13;100332.66;;;16.81;100.00
29839;BME280;18669;53.356;-1.464;2023-09-12T02:16:58;100337.72;;;16.86;100.00
29839;BME280;18669;53.356;-1.464;2023-09-12T02:19:42;100342.09;;;16.87;100.00
29839;BME280;18669;53.356;-1.464;2023-09-12T02:22:27;100338.59;;;16.87;100.00
29839;BME280;18669;53.356;-1.464;2023-09-12T02:25:12;100336.31;;;16.79;100.00
29839;BME280;18669;53.356;-1.464;2023-09-12T02:27:57;100335.22;;;16.83;100.00
29839;BME280;18669;53.356;-1.464;2023-09-12T02:30:42;100327.50;;;16.78;100.00
29839;BME280;18669;53.356;-1.464;2023-09-12T02:33:27;100321.94;;;16.83;100.00
29839;BME280;18669;53.356;-1.464;2023-09-12T02:36:12;100326.31;;;16.84;100.00
29839;BME280;18669;53.356;-1.464;2023-09-12T02:38:57;100327.09;;;16.86;100.00
29839;BME280;18669;53.356;-1.464;2023-09-12T02:41:42;100325.38;;;16.85;100.00
29839;BME280;18669;53.356;-1.464;2023-09-12T02:44:26;100323.97;;;16.78;100.00
29839;BME280;18669;53.356;-1.464;2023-09-12T02:47:11;100321.16;;;16.81;100.00
29839;BME280;18669;53.356;-1.464;2023-09-12T02:49:56;100325.53;;;16.82;100.00
29839;BME280;18669;53.356;-1.464;2023-09-12T02:52:41;100320.63;;;16.74;100.00
29839;BME280;18669;53.356;-1.464;2023-09-12T02:55:26;100330.47;;;16.72;100.00
29839;BME280;18669;53.356;-1.464;2023-09-12T02:58:10;100325.00;;;16.75;100.00
29839;BME280;18669;53.356;-1.464;2023-09-12T03:00:55;100319.06;;;16.70;100.00
29839;BME280;18669;53.356;-1.464;2023-09-12T03:03:40;100314.84;;;16.66;100.00
29839;BME280;18669;53.356;-1.464;2023-09-12T03:06:25;100327.13;;;16.68;100.00
29839;BME280;18669;53.356;-1.464;2023-09-12T03:09:10;100320.94;;;16.68;100.00
29839;BME280;18669;53.356;-1.464;2023-09-12T03:11:55;100326.34;;;16.66;100.00
29839;BME280;18669;53.356;-1.464;2023-09-12T03:14:40;100323.91;;;16.62;100.00
29839;BME280;18669;53.356;-1.464;2023-09-12T03:17:28;100321.97;;;16.65;100.00
29839;BME280;18669;53.356;-1.464;2023-09-12T03:20:12;100326.97;;;16.72;100.00
29839;BME280;18669;53.356;-1.464;2023-09-12T03:22:56;100320.03;;;16.51;100.00
29839;BME280;18669;53.356;-1.464;2023-09-12T03:25:41;100323.66;;;16.31;100.00
29839;BME280;18669;53.356;-1.464;2023-09-12T03:28:26;100324.50;;;16.14;100.00
29839;BME280;18669;53.356;-1.464;2023-09-12T03:31:13;100322.34;;;16.22;100.00
29839;BME280;18669;53.356;-1.464;2023-09-12T03:33:58;100333.25;;;16.16;100.00
29839;BME280;18669;53.356;-1.464;2023-09-12T03:36:43;100324.16;;;16.03;100.00
29839;BME280;18669;53.356;-1.464;2023-09-12T03:39:28;100323.66;;;15.94;100.00
29839;BME280;18669;53.356;-1.464;2023-09-12T03:42:13;100331.47;;;15.98;100.00
29839;BME280;18669;53.356;-1.464;2023-09-12T03:44:58;100333.72;;;15.88;100.00
29839;BME280;18669;53.356;-1.464;2023-09-12T03:47:43;100334.91;;;15.80;100.00
29839;BME280;18669;53.356;-1.464;2023-09-12T03:50:31;100341.13;;;15.79;100.00
29839;BME280;18669;53.356;-1.464;2023-09-12T03:53:15;100337.50;;;15.82;100.00
29839;BME280;18669;53.356;-1.464;2023-09-12T03:56:00;100340.84;;;15.86;100.00
29839;BME280;18669;53.356;-1.464;2023-09-12T03:58:46;100335.94;;;15.97;100.00
29839;BME280;18669;53.356;-1.464;2023-09-12T04:01:30;100341.28;;;15.95;100.00
29839;BME280;18669;53.356;-1.464;2023-09-12T04:04:15;100336.44;;;15.86;100.00
29839;BME280;18669;53.356;-1.464;2023-09-12T04:07:00;100334.50;;;15.90;100.00
29839;BME280;18669;53.356;-1.464;2023-09-12T04:09:45;100337.63;;;15.79;100.00
29839;BME280;18669;53.356;-1.464;2023-09-12T04:12:30;100345.88;;;15.73;100.00
29839;BME280;18669;53.356;-1.464;2023-09-12T04:15:15;100342.19;;;15.56;100.00
29839;BME280;18669;53.356;-1.464;2023-09-12T04:18:00;100340.34;;;15.58;100.00
29839;BME280;18669;53.356;-1.464;2023-09-12T04:20:45;100334.97;;;15.60;100.00
29839;BME280;18669;53.356;-1.464;2023-09-12T04:23:29;100334.97;;;15.60;100.00
29839;BME280;18669;53.356;-1.464;2023-09-12T04:26:14;100344.66;;;15.61;100.00
29839;BME280;18669;53.356;-1.464;2023-09-12T04:28:59;100339.47;;;15.39;100.00
29839;BME280;18669;53.356;-1.464;2023-09-12T04:31:44;100333.78;;;15.27;100.00
29839;BME280;18669;53.356;-1.464;2023-09-12T04:34:29;100334.66;;;15.28;100.00
29839;BME280;18669;53.356;-1.464;2023-09-12T04:37:15;100331.22;;;15.26;100.00
29839;BME280;18669;53.356;-1.464;2023-09-12T04:39:59;100326.06;;;15.23;100.00
29839;BME280;18669;53.356;-1.464;2023-09-12T04:42:44;100332.69;;;15.33;100.00
29839;BME280;18669;53.356;-1.464;2023-09-12T04:45:29;100342.34;;;15.34;100.00
29839;BME280;18669;53.356;-1.464;2023-09-12T04:48:14;100341.34;;;15.36;100.00
29839;BME280;18669;53.356;-1.464;2023-09-12T04:50:59;100332.59;;;15.34;100.00
29839;BME280;18669;53.356;-1.464;2023-09-12T04:53:43;100336.38;;;15.29;100.00
29839;BME280;18669;53.356;-1.464;2023-09-12T04:56:29;100340.75;;;15.30;100.00
29839;BME280;18669;53.356;-1.464;2023-09-12T04:59:14;100342.63;;;15.28;100.00
29839;BME280;18669;53.356;-1.464;2023-09-12T05:01:59;100341.97;;;15.23;100.00
29839;BME280;18669;53.356;-1.464;2023-09-12T05:04:44;100346.25;;;15.25;100.00
29839;BME280;18669;53.356;-1.464;2023-09-12T05:07:28;100353.13;;;15.29;100.00
29839;BME280;18669;53.356;-1.464;2023-09-12T05:10:16;100354.31;;;15.43;100.00
29839;BME280;18669;53.356;-1.464;2023-09-12T05:13:01;100351.41;;;15.28;100.00
29839;BME280;18669;53.356;-1.464;2023-09-12T05:15:46;100350.63;;;15.26;100.00
29839;BME280;18669;53.356;-1.464;2023-09-12T05:18:31;100351.19;;;15.14;100.00
29839;BME280;18669;53.356;-1.464;2023-09-12T05:21:16;100352.91;;;15.15;100.00
29839;BME280;18669;53.356;-1.464;2023-09-12T05:24:00;100343.94;;;15.17;100.00
29839;BME280;18669;53.356;-1.464;2023-09-12T05:26:45;100349.78;;;15.05;100.00
29839;BME280;18669;53.356;-1.464;2023-09-12T05:29:32;100349.91;;;15.02;100.00
29839;BME280;18669;53.356;-1.464;2023-09-12T05:32:16;100351.59;;;15.04;100.00
29839;BME280;18669;53.356;-1.464;2023-09-12T05:35:01;100346.63;;;14.97;100.00
29839;BME280;18669;53.356;-1.464;2023-09-12T05:37:46;100349.59;;;14.89;100.00
29839;BME280;18669;53.356;-1.464;2023-09-12T05:40:31;100356.03;;;14.83;100.00
29839;BME280;18669;53.356;-1.464;2023-09-12T05:43:16;100357.66;;;14.86;100.00
29839;BME280;18669;53.356;-1.464;2023-09-12T05:46:02;100359.09;;;14.95;100.00
29839;BME280;18669;53.356;-1.464;2023-09-12T05:48:46;100360.25;;;14.87;100.00
29839;BME280;18669;53.356;-1.464;2023-09-12T05:51:31;100360.97;;;14.91;100.00
29839;BME280;18669;53.356;-1.464;2023-09-12T05:54:16;100367.66;;;14.79;100.00
29839;BME280;18669;53.356;-1.464;2023-09-12T05:57:01;100375.63;;;14.79;100.00
29839;BME280;18669;53.356;-1.464;2023-09-12T05:59:46;100377.34;;;14.80;100.00
29839;BME280;18669;53.356;-1.464;2023-09-12T06:02:31;100377.81;;;14.90;100.00
29839;BME280;18669;53.356;-1.464;2023-09-12T06:05:17;100386.66;;;14.89;100.00
29839;BME280;18669;53.356;-1.464;2023-09-12T06:08:03;100387.81;;;14.83;100.00
29839;BME280;18669;53.356;-1.464;2023-09-12T06:10:49;100394.56;;;14.90;100.00
29839;BME280;18669;53.356;-1.464;2023-09-12T06:13:37;100390.53;;;14.82;100.00
29839;BME280;18669;53.356;-1.464;2023-09-12T06:16:22;100389.31;;;14.67;100.00
29839;BME280;18669;53.356;-1.464;2023-09-12T06:19:07;100395.63;;;14.64;100.00
29839;BME280;18669;53.356;-1.464;2023-09-12T06:21:52;100399.28;;;14.61;100.00
29839;BME280;18669;53.356;-1.464;2023-09-12T06:24:37;100396.25;;;14.71;100.00
29839;BME280;18669;53.356;-1.464;2023-09-12T06:27:23;100405.16;;;14.68;100.00
29839;BME280;18669;53.356;-1.464;2023-09-12T06:30:09;100402.50;;;14.68;100.00
29839;BME280;18669;53.356;-1.464;2023-09-12T06:32:53;100402.84;;;14.60;100.00
29839;BME280;18669;53.356;-1.464;2023-09-12T06:35:38;100409.75;;;14.65;100.00
29839;BME280;18669;53.356;-1.464;2023-09-12T06:38:23;100406.59;;;14.55;100.00
29839;BME280;18669;53.356;-1.464;2023-09-12T06:41:08;100411.06;;;14.53;100.00
29839;BME280;18669;53.356;-1.464;2023-09-12T06:43:53;100416.38;;;14.53;100.00
29839;BME280;18669;53.356;-1.464;2023-09-12T06:46:41;100410.28;;;14.51;100.00
29839;BME280;18669;53.356;-1.464;2023-09-12T06:49:26;100415.31;;;14.57;100.00
29839;BME280;18669;53.356;-1.464;2023-09-12T06:52:11;100422.09;;;14.64;100.00
29839;BME280;18669;53.356;-1.464;2023-09-12T06:54:56;100427.28;;;14.67;100.00
29839;BME280;18669;53.356;-1.464;2023-09-12T06:57:41;100424.22;;;14.78;100.00
29839;BME280;18669;53.356;-1.464;2023-09-12T07:00:26;100425.09;;;14.79;100.00
29839;BME280;18669;53.356;-1.464;2023-09-12T07:03:11;100433.16;;;14.75;100.00
29839;BME280;18669;53.356;-1.464;2023-09-12T07:05:56;100430.50;;;14.75;100.00
29839;BME280;18669;53.356;-1.464;2023-09-12T07:08:42;100434.75;;;14.80;100.00
29839;BME280;18669;53.356;-1.464;2023-09-12T07:11:26;100436.19;;;14.87;100.00
29839;BME280;18669;53.356;-1.464;2023-09-12T07:14:12;100431.97;;;14.83;100.00
29839;BME280;18669;53.356;-1.464;2023-09-12T07:16:56;100436.59;;;14.77;100.00
29839;BME280;18669;53.356;-1.464;2023-09-12T07:19:42;100438.31;;;14.79;100.00
29839;BME280;18669;53.356;-1.464;2023-09-12T07:22:26;100443.75;;;14.75;100.00
29839;BME280;18669;53.356;-1.464;2023-09-12T07:25:13;100440.22;;;14.75;100.00
29839;BME280;18669;53.356;-1.464;2023-09-12T07:27:58;100457.50;;;14.84;100.00
29839;BME280;18669;53.356;-1.464;2023-09-12T07:30:45;100450.66;;;14.80;100.00
29839;BME280;18669;53.356;-1.464;2023-09-12T07:33:30;100462.16;;;14.79;100.00
29839;BME280;18669;53.356;-1.464;2023-09-12T07:36:15;100456.78;;;14.80;100.00
29839;BME280;18669;53.356;-1.464;2023-09-12T07:39:00;100461.50;;;14.94;100.00
29839;BME280;18669;53.356;-1.464;2023-09-12T07:41:46;100455.38;;;14.94;100.00
29839;BME280;18669;53.356;-1.464;2023-09-12T07:44:30;100460.13;;;14.85;100.00
29839;BME280;18669;53.356;-1.464;2023-09-12T07:47:15;100459.06;;;14.89;100.00
29839;BME280;18669;53.356;-1.464;2023-09-12T07:50:00;100464.22;;;14.93;100.00
29839;BME280;18669;53.356;-1.464;2023-09-12T07:52:45;100456.22;;;14.94;100.00
29839;BME280;18669;53.356;-1.464;2023-09-12T07:55:30;100459.78;;;14.93;100.00
29839;BME280;18669;53.356;-1.464;2023-09-12T07:58:18;100457.88;;;14.97;100.00
29839;BME280;18669;53.356;-1.464;2023-09-12T08:01:07;100459.81;;;15.14;100.00
29839;BME280;18669;53.356;-1.464;2023-09-12T08:03:53;100455.16;;;14.98;100.00
29839;BME280;18669;53.356;-1.464;2023-09-12T08:06:37;100463.22;;;14.95;100.00
29839;BME280;18669;53.356;-1.464;2023-09-12T08:09:22;100461.72;;;14.89;100.00
29839;BME280;18669;53.356;-1.464;2023-09-12T08:12:07;100469.09;;;14.81;100.00
29839;BME280;18669;53.356;-1.464;2023-09-12T08:14:53;100470.22;;;14.75;100.00
29839;BME280;18669;53.356;-1.464;2023-09-12T08:17:38;100469.31;;;14.76;100.00
29839;BME280;18669;53.356;-1.464;2023-09-12T08:20:23;100484.38;;;14.97;100.00
29839;BME280;18669;53.356;-1.464;2023-09-12T08:23:09;100486.22;;;14.95;100.00
29839;BME280;18669;53.356;-1.464;2023-09-12T08:25:53;100483.06;;;14.85;100.00
29839;BME280;18669;53.356;-1.464;2023-09-12T08:28:38;100485.56;;;14.89;100.00
29839;BME280;18669;53.356;-1.464;2023-09-12T08:31:23;100483.16;;;14.83;100.00
29839;BME280;18669;53.356;-1.464;2023-09-12T08:34:08;100485.34;;;14.94;100.00
29839;BME280;18669;53.356;-1.464;2023-09-12T08:36:53;100480.72;;;14.99;100.00
29839;BME280;18669;53.356;-1.464;2023-09-12T08:39:43;100478.53;;;15.09;100.00
29839;BME280;18669;53.356;-1.464;2023-09-12T08:42:29;100482.38;;;15.02;100.00
29839;BME280;18669;53.356;-1.464;2023-09-12T08:45:19;100483.56;;;15.17;100.00
29839;BME280;18669;53.356;-1.464;2023-09-12T08:48:05;100488.66;;;15.21;100.00
29839;BME280;18669;53.356;-1.464;2023-09-12T08:50:52;100502.34;;;15.31;100.00
29839;BME280;18669;53.356;-1.464;2023-09-12T08:53:38;100495.13;;;15.14;100.00
29839;BME280;18669;53.356;-1.464;2023-09-12T08:56:23;100501.44;;;15.12;100.00
29839;BME280;18669;53.356;-1.464;2023-09-12T08:59:10;100500.84;;;15.26;100.00
29839;BME280;18669;53.356;-1.464;2023-09-12T09:01:55;100500.16;;;15.20;100.00
29839;BME280;18669;53.356;-1.464;2023-09-12T09:04:42;100511.16;;;15.11;100.00
29839;BME280;18669;53.356;-1.464;2023-09-12T09:07:31;100510.06;;;15.17;100.00
29839;BME280;18669;53.356;-1.464;2023-09-12T09:10:17;100515.34;;;15.38;100.00
29839;BME280;18669;53.356;-1.464;2023-09-12T09:13:03;100513.63;;;15.16;100.00
29839;BME280;18669;53.356;-1.464;2023-09-12T09:15:48;100510.22;;;14.90;100.00
29839;BME280;18669;53.356;-1.464;2023-09-12T09:18:49;100513.19;;;15.04;100.00
29839;BME280;18669;53.356;-1.464;2023-09-12T09:21:36;100509.81;;;15.01;100.00
29839;BME280;18669;53.356;-1.464;2023-09-12T09:24:21;100520.09;;;15.09;100.00
29839;BME280;18669;53.356;-1.464;2023-09-12T09:27:07;100523.13;;;15.20;100.00
29839;BME280;18669;53.356;-1.464;2023-09-12T09:29:52;100520.25;;;15.26;100.00
29839;BME280;18669;53.356;-1.464;2023-09-12T09:32:37;100523.59;;;15.09;100.00
29839;BME280;18669;53.356;-1.464;2023-09-12T09:35:22;100527.84;;;15.13;100.00
29839;BME280;18669;53.356;-1.464;2023-09-12T09:38:08;100523.00;;;15.23;100.00
29839;BME280;18669;53.356;-1.464;2023-09-12T09:40:53;100531.84;;;15.24;100.00
29839;BME280;18669;53.356;-1.464;2023-09-12T09:43:38;100530.25;;;15.19;100.00
29839;BME280;18669;53.356;-1.464;2023-09-12T09:46:23;100526.41;;;15.27;100.00
29839;BME280;18669;53.356;-1.464;2023-09-12T09:49:10;100531.19;;;15.39;100.00
29839;BME280;18669;53.356;-1.464;2023-09-12T09:51:55;100527.38;;;15.24;100.00
29839;BME280;18669;53.356;-1.464;2023-09-12T09:54:44;100535.75;;;15.35;100.00
29839;BME280;18669;53.356;-1.464;2023-09-12T09:57:30;100538.66;;;15.29;100.00
29839;BME280;18669;53.356;-1.464;2023-09-12T10:00:15;100537.56;;;15.35;100.00
29839;BME280;18669;53.356;-1.464;2023-09-12T10:03:01;100534.50;;;15.44;100.00
29839;BME280;18669;53.356;-1.464;2023-09-12T10:05:50;100532.84;;;15.42;100.00
29839;BME280;18669;53.356;-1.464;2023-09-12T10:08:37;100528.81;;;15.33;100.00
29839;BME280;18669;53.356;-1.464;2023-09-12T10:11:28;100539.94;;;15.41;100.00
29839;BME280;18669;53.356;-1.464;2023-09-12T10:14:15;100536.94;;;15.28;100.00
29839;BME280;18669;53.356;-1.464;2023-09-12T10:17:02;100531.91;;;15.22;100.00
29839;BME280;18669;53.356;-1.464;2023-09-12T10:19:55;100538.75;;;15.28;100.00
29839;BME280;18669;53.356;-1.464;2023-09-12T10:22:46;100541.47;;;15.04;100.00
29839;BME280;18669;53.356;-1.464;2023-09-12T10:25:32;100547.44;;;15.09;100.00
29839;BME280;18669;53.356;-1.464;2023-09-12T10:28:18;100538.53;;;15.12;100.00
29839;BME280;18669;53.356;-1.464;2023-09-12T10:31:04;100544.53;;;15.15;100.00
29839;BME280;18669;53.356;-1.464;2023-09-12T10:33:50;100554.22;;;15.16;100.00
29839;BME280;18669;53.356;-1.464;2023-09-12T10:36:40;100550.19;;;15.28;100.00
29839;BME280;18669;53.356;-1.464;2023-09-12T10:39:26;100545.09;;;15.44;100.00
29839;BME280;18669;53.356;-1.464;2023-09-12T10:42:12;100544.38;;;15.41;100.00
29839;BME280;18669;53.356;-1.464;2023-09-12T10:44:59;100557.91;;;15.55;100.00
29839;BME280;18669;53.356;-1.464;2023-09-12T10:47:45;100556.97;;;15.56;100.00
29839;BME280;18669;53.356;-1.464;2023-09-12T10:50:31;100555.47;;;15.50;100.00
29839;BME280;18669;53.356;-1.464;2023-09-12T10:53:16;100558.53;;;15.62;100.00
29839;BME280;18669;53.356;-1.464;2023-09-12T11:02:29;100559.78;;;15.53;100.00
29839;BME280;18669;53.356;-1.464;2023-09-12T11:08:14;100560.53;;;15.34;100.00
29839;BME280;18669;53.356;-1.464;2023-09-12T11:11:20;100561.47;;;15.54;100.00
29839;BME280;18669;53.356;-1.464;2023-09-12T11:14:06;100563.88;;;15.40;100.00
29839;BME280;18669;53.356;-1.464;2023-09-12T11:19:52;100572.75;;;15.39;100.00
29839;BME280;18669;53.356;-1.464;2023-09-12T11:22:44;100569.50;;;15.32;100.00
29839;BME280;18669;53.356;-1.464;2023-09-12T11:25:29;100574.41;;;15.19;100.00
29839;BME280;18669;53.356;-1.464;2023-09-12T11:28:15;100574.69;;;15.13;100.00
29839;BME280;18669;53.356;-1.464;2023-09-12T11:31:04;100579.13;;;15.12;100.00
29839;BME280;18669;53.356;-1.464;2023-09-12T11:33:49;100589.53;;;15.17;100.00
29839;BME280;18669;53.356;-1.464;2023-09-12T11:36:40;100577.81;;;15.23;100.00
29839;BME280;18669;53.356;-1.464;2023-09-12T11:39:30;100574.56;;;15.16;100.00
29839;BME280;18669;53.356;-1.464;2023-09-12T11:42:15;100578.50;;;15.05;100.00
29839;BME280;18669;53.356;-1.464;2023-09-12T11:45:01;100583.81;;;15.05;100.00
29839;BME280;18669;53.356;-1.464;2023-09-12T11:47:47;100583.72;;;15.29;100.00
29839;BME280;18669;53.356;-1.464;2023-09-12T11:50:33;100574.69;;;15.35;100.00
29839;BME280;18669;53.356;-1.464;2023-09-12T11:53:23;100570.44;;;15.51;100.00
29839;BME280;18669;53.356;-1.464;2023-09-12T11:56:10;100578.84;;;15.61;100.00
29839;BME280;18669;53.356;-1.464;2023-09-12T11:58:55;100580.03;;;15.54;100.00
29839;BME280;18669;53.356;-1.464;2023-09-12T12:01:40;100577.59;;;15.49;100.00
29839;BME280;18669;53.356;-1.464;2023-09-12T12:04:25;100573.63;;;15.60;100.00
29839;BME280;18669;53.356;-1.464;2023-09-12T12:07:11;100580.06;;;15.75;100.00
29839;BME280;18669;53.356;-1.464;2023-09-12T12:09:56;100580.59;;;15.62;100.00
29839;BME280;18669;53.356;-1.464;2023-09-12T12:12:43;100568.13;;;15.64;100.00
29839;BME280;18669;53.356;-1.464;2023-09-12T12:15:28;100569.00;;;15.65;100.00
29839;BME280;18669;53.356;-1.464;2023-09-12T12:18:13;100577.25;;;15.57;100.00
29839;BME280;18669;53.356;-1.464;2023-09-12T12:20:58;100572.84;;;15.58;100.00
29839;BME280;18669;53.356;-1.464;2023-09-12T12:23:43;100573.47;;;15.42;100.00
29839;BME280;18669;53.356;-1.464;2023-09-12T12:26:30;100571.63;;;15.44;100.00
29839;BME280;18669;53.356;-1.464;2023-09-12T12:29:15;100581.13;;;15.50;100.00
29839;BME280;18669;53.356;-1.464;2023-09-12T12:32:01;100581.84;;;15.33;100.00
29839;BME280;18669;53.356;-1.464;2023-09-12T12:34:49;100579.66;;;15.43;100.00
29839;BME280;18669;53.356;-1.464;2023-09-12T12:37:35;100580.69;;;15.39;100.00
29839;BME280;18669;53.356;-1.464;2023-09-12T12:40:20;100577.38;;;15.33;100.00
29839;BME280;18669;53.356;-1.464;2023-09-12T12:43:05;100578.97;;;15.38;100.00
29839;BME280;18669;53.356;-1.464;2023-09-12T12:45:58;100584.50;;;15.54;100.00
29839;BME280;18669;53.356;-1.464;2023-09-12T12:48:43;100585.16;;;15.59;100.00
29839;BME280;18669;53.356;-1.464;2023-09-12T12:51:31;100585.88;;;15.62;100.00
29839;BME280;18669;53.356;-1.464;2023-09-12T12:54:21;100587.34;;;15.70;100.00
29839;BME280;18669;53.356;-1.464;2023-09-12T12:57:09;100584.97;;;15.63;100.00
29839;BME280;18669;53.356;-1.464;2023-09-12T12:59:58;100588.28;;;15.69;100.00
29839;BME280;18669;53.356;-1.464;2023-09-12T13:02:43;100586.63;;;15.66;100.00
29839;BME280;18669;53.356;-1.464;2023-09-12T13:05:29;100587.44;;;15.68;100.00
29839;BME280;18669;53.356;-1.464;2023-09-12T13:08:17;100576.84;;;15.68;100.00
29839;BME280;18669;53.356;-1.464;2023-09-12T13:11:02;100586.50;;;15.69;100.00
29839;BME280;18669;53.356;-1.464;2023-09-12T13:13:49;100587.44;;;15.68;100.00
29839;BME280;18669;53.356;-1.464;2023-09-12T13:16:35;100590.34;;;15.62;100.00
29839;BME280;18669;53.356;-1.464;2023-09-12T13:19:20;100595.81;;;15.57;100.00
29839;BME280;18669;53.356;-1.464;2023-09-12T13:22:04;100591.66;;;15.51;100.00
29839;BME280;18669;53.356;-1.464;2023-09-12T13:24:49;100588.16;;;15.51;100.00
29839;BME280;18669;53.356;-1.464;2023-09-12T13:27:34;100602.97;;;15.55;100.00
29839;BME280;18669;53.356;-1.464;2023-09-12T13:30:19;100604.88;;;15.53;100.00
29839;BME280;18669;53.356;-1.464;2023-09-12T13:33:04;100611.22;;;15.49;100.00
29839;BME280;18669;53.356;-1.464;2023-09-12T13:35:49;100608.38;;;15.54;100.00
29839;BME280;18669;53.356;-1.464;2023-09-12T13:38:34;100617.31;;;15.51;100.00
29839;BME280;18669;53.356;-1.464;2023-09-12T13:41:19;100618.97;;;15.54;100.00
29839;BME280;18669;53.356;-1.464;2023-09-12T13:44:06;100619.47;;;15.41;100.00
29839;BME280;18669;53.356;-1.464;2023-09-12T13:46:51;100633.75;;;15.37;100.00
29839;BME280;18669;53.356;-1.464;2023-09-12T13:49:36;100629.31;;;15.17;100.00
29839;BME280;18669;53.356;-1.464;2023-09-12T13:52:21;100631.06;;;15.16;100.00
29839;BME280;18669;53.356;-1.464;2023-09-12T13:55:06;100629.94;;;15.22;100.00
29839;BME280;18669;53.356;-1.464;2023-09-12T13:57:51;100630.06;;;15.19;100.00
29839;BME280;18669;53.356;-1.464;2023-09-12T14:00:36;100630.22;;;15.16;100.00
29839;BME280;18669;53.356;-1.464;2023-09-12T14:03:21;100630.34;;;15.13;100.00
29839;BME280;18669;53.356;-1.464;2023-09-12T14:06:06;100638.09;;;15.17;100.00
29839;BME280;18669;53.356;-1.464;2023-09-12T14:08:52;100637.84;;;15.24;100.00
29839;BME280;18669;53.356;-1.464;2023-09-12T14:11:37;100629.22;;;15.18;100.00
29839;BME280;18669;53.356;-1.464;2023-09-12T14:14:21;100634.72;;;15.14;100.00
29839;BME280;18669;53.356;-1.464;2023-09-12T14:17:06;100634.72;;;15.14;100.00
29839;BME280;18669;53.356;-1.464;2023-09-12T14:19:51;100646.59;;;15.03;100.00